sensor_id;sensor_type;location;lat;lon;timestamp;pressure;altitude;pressure_sealevel;temperature
15626;BMP180;7912;51.376;6.126;2023-04-06T00:02:12;101561.00;;;7.10
15626;BMP180;7912;51.376;6.126;2023-04-06T00:04:39;101555.00;;;7.00
15626;BMP180;7912;51.376;6.126;2023-04-06T00:07:06;101561.00;;;7.00
15626;BMP180;7912;51.376;6.126;2023-04-06T00:09:34;101547.00;;;7.00
15626;BMP180;7912;51.376;6.126;2023-04-06T00:12:01;101555.00;;;6.90
15626;BMP180;7912;51.376;6.126;2023-04-06T00:14:28;101546.00;;;6.90
15626;BMP180;7912;51.376;6.126;2023-04-06T00:16:55;101553.00;;;6.80
15626;BMP180;7912;51.376;6.126;2023-04-06T00:19:23;101551.00;;;6.80
15626;BMP180;7912;51.376;6.126;2023-04-06T00:21:50;101550.00;;;6.80
15626;BMP180;7912;51.376;6.126;2023-04-06T00:24:17;101554.00;;;6.70
15626;BMP180;7912;51.376;6.126;2023-04-06T00:26:44;101546.00;;;6.70
15626;BMP180;7912;51.376;6.126;2023-04-06T00:29:12;101547.00;;;6.70
15626;BMP180;7912;51.376;6.126;2023-04-06T00:31:39;101552.00;;;6.70
15626;BMP180;7912;51.376;6.126;2023-04-06T00:34:07;101548.00;;;6.70
15626;BMP180;7912;51.376;6.126;2023-04-06T00:36:34;101539.00;;;6.60
15626;BMP180;7912;51.376;6.126;2023-04-06T00:39:02;101547.00;;;6.60
15626;BMP180;7912;51.376;6.126;2023-04-06T00:41:29;101531.00;;;6.60
15626;BMP180;7912;51.376;6.126;2023-04-06T00:43:57;101530.00;;;6.60
15626;BMP180;7912;51.376;6.126;2023-04-06T00:46:24;101528.00;;;6.50
15626;BMP180;7912;51.376;6.126;2023-04-06T00:48:52;101522.00;;;6.50
15626;BMP180;7912;51.376;6.126;2023-04-06T00:51:19;101531.00;;;6.50
15626;BMP180;7912;51.376;6.126;2023-04-06T00:53:46;101509.00;;;6.40
15626;BMP180;7912;51.376;6.126;2023-04-06T00:56:13;101524.00;;;6.40
15626;BMP180;7912;51.376;6.126;2023-04-06T00:58:41;101517.00;;;6.40
15626;BMP180;7912;51.376;6.126;2023-04-06T01:01:08;101496.00;;;6.30
15626;BMP180;7912;51.376;6.126;2023-04-06T01:03:35;101506.00;;;6.30
15626;BMP180;7912;51.376;6.126;2023-04-06T01:06:03;101501.00;;;6.30
15626;BMP180;7912;51.376;6.126;2023-04-06T01:08:30;101512.00;;;6.30
15626;BMP180;7912;51.376;6.126;2023-04-06T01:11:00;101508.00;;;6.20
15626;BMP180;7912;51.376;6.126;2023-04-06T01:13:30;101497.00;;;6.10
15626;BMP180;7912;51.376;6.126;2023-04-06T01:15:57;101498.00;;;6.20
15626;BMP180;7912;51.376;6.126;2023-04-06T01:18:29;101490.00;;;6.10
15626;BMP180;7912;51.376;6.126;2023-04-06T01:20:56;101495.00;;;6.10
15626;BMP180;7912;51.376;6.126;2023-04-06T01:23:23;101501.00;;;6.10
15626;BMP180;7912;51.376;6.126;2023-04-06T01:25:51;101494.00;;;6.10
15626;BMP180;7912;51.376;6.126;2023-04-06T01:28:18;101496.00;;;6.00
15626;BMP180;7912;51.376;6.126;2023-04-06T01:30:45;101486.00;;;6.00
15626;BMP180;7912;51.376;6.126;2023-04-06T01:33:12;101480.00;;;6.00
15626;BMP180;7912;51.376;6.126;2023-04-06T01:35:39;101475.00;;;6.00
15626;BMP180;7912;51.376;6.126;2023-04-06T01:38:07;101480.00;;;6.00
15626;BMP180;7912;51.376;6.126;2023-04-06T01:40:35;101480.00;;;5.90
15626;BMP180;7912;51.376;6.126;2023-04-06T01:43:02;101472.00;;;5.90
15626;BMP180;7912;51.376;6.126;2023-04-06T01:45:29;101475.00;;;5.90
15626;BMP180;7912;51.376;6.126;2023-04-06T01:47:56;101449.00;;;5.80
15626;BMP180;7912;51.376;6.126;2023-04-06T01:50:24;101461.00;;;5.80
15626;BMP180;7912;51.376;6.126;2023-04-06T01:52:51;101469.00;;;5.80
15626;BMP180;7912;51.376;6.126;2023-04-06T01:55:18;101465.00;;;5.80
15626;BMP180;7912;51.376;6.126;2023-04-06T01:57:47;101460.00;;;5.80
15626;BMP180;7912;51.376;6.126;2023-04-06T02:00:15;101462.00;;;5.80
15626;BMP180;7912;51.376;6.126;2023-04-06T02:02:42;101462.00;;;5.80
15626;BMP180;7912;51.376;6.126;2023-04-06T02:05:10;101459.00;;;5.80
15626;BMP180;7912;51.376;6.126;2023-04-06T02:07:37;101453.00;;;5.70
15626;BMP180;7912;51.376;6.126;2023-04-06T02:10:11;101451.00;;;5.70
15626;BMP180;7912;51.376;6.126;2023-04-06T02:12:39;101448.00;;;5.70
15626;BMP180;7912;51.376;6.126;2023-04-06T02:15:07;101445.00;;;5.70
15626;BMP180;7912;51.376;6.126;2023-04-06T02:17:34;101454.00;;;5.60
15626;BMP180;7912;51.376;6.126;2023-04-06T02:20:02;101450.00;;;5.60
15626;BMP180;7912;51.376;6.126;2023-04-06T02:22:29;101452.00;;;5.60
15626;BMP180;7912;51.376;6.126;2023-04-06T02:24:56;101450.00;;;5.60
15626;BMP180;7912;51.376;6.126;2023-04-06T02:27:24;101448.00;;;5.60
15626;BMP180;7912;51.376;6.126;2023-04-06T02:29:51;101446.00;;;5.60
15626;BMP180;7912;51.376;6.126;2023-04-06T02:32:19;101449.00;;;5.50
15626;BMP180;7912;51.376;6.126;2023-04-06T02:34:46;101444.00;;;5.50
15626;BMP180;7912;51.376;6.126;2023-04-06T02:37:13;101446.00;;;5.50
15626;BMP180;7912;51.376;6.126;2023-04-06T02:39:41;101444.00;;;5.50
15626;BMP180;7912;51.376;6.126;2023-04-06T02:42:08;101442.00;;;5.50
15626;BMP180;7912;51.376;6.126;2023-04-06T02:44:35;101444.00;;;5.40
15626;BMP180;7912;51.376;6.126;2023-04-06T02:47:03;101429.00;;;5.40
15626;BMP180;7912;51.376;6.126;2023-04-06T02:49:30;101437.00;;;5.40
15626;BMP180;7912;51.376;6.126;2023-04-06T02:51:57;101429.00;;;5.40
15626;BMP180;7912;51.376;6.126;2023-04-06T02:54:24;101420.00;;;5.40
15626;BMP180;7912;51.376;6.126;2023-04-06T02:56:52;101417.00;;;5.40
15626;BMP180;7912;51.376;6.126;2023-04-06T02:59:19;101410.00;;;5.40
15626;BMP180;7912;51.376;6.126;2023-04-06T03:01:49;101415.00;;;5.40
15626;BMP180;7912;51.376;6.126;2023-04-06T03:04:17;101418.00;;;5.40
15626;BMP180;7912;51.376;6.126;2023-04-06T03:06:44;101408.00;;;5.40
15626;BMP180;7912;51.376;6.126;2023-04-06T03:09:12;101413.00;;;5.40
15626;BMP180;7912;51.376;6.126;2023-04-06T03:11:40;101415.00;;;5.40
15626;BMP180;7912;51.376;6.126;2023-04-06T03:14:07;101413.00;;;5.40
15626;BMP180;7912;51.376;6.126;2023-04-06T03:16:35;101423.00;;;5.40
15626;BMP180;7912;51.376;6.126;2023-04-06T03:19:02;101410.00;;;5.40
15626;BMP180;7912;51.376;6.126;2023-04-06T03:21:29;101412.00;;;5.40
15626;BMP180;7912;51.376;6.126;2023-04-06T03:23:58;101417.00;;;5.40
15626;BMP180;7912;51.376;6.126;2023-04-06T03:26:26;101416.00;;;5.40
15626;BMP180;7912;51.376;6.126;2023-04-06T03:28:53;101399.00;;;5.40
15626;BMP180;7912;51.376;6.126;2023-04-06T03:31:21;101411.00;;;5.40
15626;BMP180;7912;51.376;6.126;2023-04-06T03:33:48;101404.00;;;5.40
15626;BMP180;7912;51.376;6.126;2023-04-06T03:36:15;101406.00;;;5.40
15626;BMP180;7912;51.376;6.126;2023-04-06T03:38:42;101402.00;;;5.40
15626;BMP180;7912;51.376;6.126;2023-04-06T03:41:10;101392.00;;;5.50
15626;BMP180;7912;51.376;6.126;2023-04-06T03:43:37;101397.00;;;5.50
15626;BMP180;7912;51.376;6.126;2023-04-06T03:46:04;101405.00;;;5.50
15626;BMP180;7912;51.376;6.126;2023-04-06T03:48:31;101391.00;;;5.50
15626;BMP180;7912;51.376;6.126;2023-04-06T03:50:59;101388.00;;;5.50
15626;BMP180;7912;51.376;6.126;2023-04-06T03:53:26;101387.00;;;5.60
15626;BMP180;7912;51.376;6.126;2023-04-06T03:55:53;101383.00;;;5.60
15626;BMP180;7912;51.376;6.126;2023-04-06T03:58:20;101388.00;;;5.60
15626;BMP180;7912;51.376;6.126;2023-04-06T04:00:48;101389.00;;;5.60
15626;BMP180;7912;51.376;6.126;2023-04-06T04:03:15;101392.00;;;5.60
15626;BMP180;7912;51.376;6.126;2023-04-06T04:05:43;101371.00;;;5.60
15626;BMP180;7912;51.376;6.126;2023-04-06T04:08:10;101384.00;;;5.60
15626;BMP180;7912;51.376;6.126;2023-04-06T04:10:37;101386.00;;;5.70
15626;BMP180;7912;51.376;6.126;2023-04-06T04:13:04;101388.00;;;5.70
15626;BMP180;7912;51.376;6.126;2023-04-06T04:15:32;101383.00;;;5.70
15626;BMP180;7912;51.376;6.126;2023-04-06T04:17:59;101389.00;;;5.80
15626;BMP180;7912;51.376;6.126;2023-04-06T04:20:26;101376.00;;;5.80
15626;BMP180;7912;51.376;6.126;2023-04-06T04:22:55;101390.00;;;5.90
15626;BMP180;7912;51.376;6.126;2023-04-06T04:25:23;101393.00;;;5.90
15626;BMP180;7912;51.376;6.126;2023-04-06T04:27:50;101399.00;;;6.00
15626;BMP180;7912;51.376;6.126;2023-04-06T04:30:18;101390.00;;;6.00
15626;BMP180;7912;51.376;6.126;2023-04-06T04:32:45;101382.00;;;6.10
15626;BMP180;7912;51.376;6.126;2023-04-06T04:35:12;101383.00;;;6.20
15626;BMP180;7912;51.376;6.126;2023-04-06T04:37:41;101393.00;;;6.20
15626;BMP180;7912;51.376;6.126;2023-04-06T04:40:09;101396.00;;;6.30
15626;BMP180;7912;51.376;6.126;2023-04-06T04:42:36;101383.00;;;6.40
15626;BMP180;7912;51.376;6.126;2023-04-06T04:45:04;101388.00;;;6.40
15626;BMP180;7912;51.376;6.126;2023-04-06T04:47:32;101390.00;;;6.50
15626;BMP180;7912;51.376;6.126;2023-04-06T04:49:59;101387.00;;;6.60
15626;BMP180;7912;51.376;6.126;2023-04-06T04:52:26;101395.00;;;6.60
15626;BMP180;7912;51.376;6.126;2023-04-06T04:54:53;101383.00;;;6.70
15626;BMP180;7912;51.376;6.126;2023-04-06T04:57:21;101379.00;;;6.70
15626;BMP180;7912;51.376;6.126;2023-04-06T04:59:48;101393.00;;;6.70
15626;BMP180;7912;51.376;6.126;2023-04-06T05:02:17;101386.00;;;6.80
15626;BMP180;7912;51.376;6.126;2023-04-06T05:04:44;101384.00;;;6.80
15626;BMP180;7912;51.376;6.126;2023-04-06T05:07:12;101388.00;;;6.80
15626;BMP180;7912;51.376;6.126;2023-04-06T05:09:39;101388.00;;;6.70
15626;BMP180;7912;51.376;6.126;2023-04-06T05:12:07;101384.00;;;6.70
15626;BMP180;7912;51.376;6.126;2023-04-06T05:14:35;101387.00;;;6.70
15626;BMP180;7912;51.376;6.126;2023-04-06T05:17:03;101374.00;;;6.80
15626;BMP180;7912;51.376;6.126;2023-04-06T05:19:30;101376.00;;;6.80
15626;BMP180;7912;51.376;6.126;2023-04-06T05:21:57;101380.00;;;6.80
15626;BMP180;7912;51.376;6.126;2023-04-06T05:24:25;101385.00;;;6.90
15626;BMP180;7912;51.376;6.126;2023-04-06T05:26:52;101385.00;;;7.00
15626;BMP180;7912;51.376;6.126;2023-04-06T05:29:20;101367.00;;;7.00
15626;BMP180;7912;51.376;6.126;2023-04-06T05:31:48;101382.00;;;7.10
15626;BMP180;7912;51.376;6.126;2023-04-06T05:34:15;101378.00;;;7.20
15626;BMP180;7912;51.376;6.126;2023-04-06T05:36:42;101381.00;;;7.30
15626;BMP180;7912;51.376;6.126;2023-04-06T05:39:09;101384.00;;;7.30
15626;BMP180;7912;51.376;6.126;2023-04-06T05:41:37;101383.00;;;7.50
15626;BMP180;7912;51.376;6.126;2023-04-06T05:44:04;101375.00;;;7.60
15626;BMP180;7912;51.376;6.126;2023-04-06T05:46:31;101368.00;;;7.70
15626;BMP180;7912;51.376;6.126;2023-04-06T05:48:59;101364.00;;;7.80
15626;BMP180;7912;51.376;6.126;2023-04-06T05:51:28;101359.00;;;7.90
15626;BMP180;7912;51.376;6.126;2023-04-06T05:53:56;101376.00;;;8.00
15626;BMP180;7912;51.376;6.126;2023-04-06T05:56:24;101367.00;;;8.20
15626;BMP180;7912;51.376;6.126;2023-04-06T05:58:52;101356.00;;;8.30
15626;BMP180;7912;51.376;6.126;2023-04-06T06:01:19;101358.00;;;8.40
15626;BMP180;7912;51.376;6.126;2023-04-06T06:03:47;101359.00;;;8.60
15626;BMP180;7912;51.376;6.126;2023-04-06T06:06:14;101360.00;;;8.60
15626;BMP180;7912;51.376;6.126;2023-04-06T06:08:42;101350.00;;;8.80
15626;BMP180;7912;51.376;6.126;2023-04-06T06:11:09;101344.00;;;8.90
15626;BMP180;7912;51.376;6.126;2023-04-06T06:13:36;101359.00;;;9.00
15626;BMP180;7912;51.376;6.126;2023-04-06T06:16:41;101350.00;;;9.10
15626;BMP180;7912;51.376;6.126;2023-04-06T06:19:09;101347.00;;;9.20
15626;BMP180;7912;51.376;6.126;2023-04-06T06:21:37;101335.00;;;9.30
15626;BMP180;7912;51.376;6.126;2023-04-06T06:24:05;101341.00;;;9.40
15626;BMP180;7912;51.376;6.126;2023-04-06T06:29:56;101352.00;;;9.60
15626;BMP180;7912;51.376;6.126;2023-04-06T06:33:02;101355.00;;;9.70
15626;BMP180;7912;51.376;6.126;2023-04-06T06:35:37;101356.00;;;9.80
15626;BMP180;7912;51.376;6.126;2023-04-06T06:38:05;101363.00;;;9.90
15626;BMP180;7912;51.376;6.126;2023-04-06T06:40:34;101361.00;;;10.00
15626;BMP180;7912;51.376;6.126;2023-04-06T06:43:01;101356.00;;;10.10
15626;BMP180;7912;51.376;6.126;2023-04-06T06:45:28;101359.00;;;10.30
15626;BMP180;7912;51.376;6.126;2023-04-06T06:47:56;101360.00;;;10.40
15626;BMP180;7912;51.376;6.126;2023-04-06T06:50:24;101349.00;;;10.50
15626;BMP180;7912;51.376;6.126;2023-04-06T06:52:52;101338.00;;;10.60
15626;BMP180;7912;51.376;6.126;2023-04-06T06:55:19;101342.00;;;10.70
15626;BMP180;7912;51.376;6.126;2023-04-06T06:57:46;101345.00;;;10.80
15626;BMP180;7912;51.376;6.126;2023-04-06T07:00:43;101338.00;;;11.00
15626;BMP180;7912;51.376;6.126;2023-04-06T07:06:56;101340.00;;;11.20
15626;BMP180;7912;51.376;6.126;2023-04-06T07:09:23;101332.00;;;11.30
15626;BMP180;7912;51.376;6.126;2023-04-06T07:11:50;101332.00;;;11.30
15626;BMP180;7912;51.376;6.126;2023-04-06T07:14:18;101334.00;;;11.40
15626;BMP180;7912;51.376;6.126;2023-04-06T07:16:45;101336.00;;;11.50
15626;BMP180;7912;51.376;6.126;2023-04-06T07:23:33;101331.00;;;11.60
15626;BMP180;7912;51.376;6.126;2023-04-06T07:26:01;101322.00;;;11.70
15626;BMP180;7912;51.376;6.126;2023-04-06T07:28:28;101335.00;;;11.80
15626;BMP180;7912;51.376;6.126;2023-04-06T07:30:56;101329.00;;;11.90
15626;BMP180;7912;51.376;6.126;2023-04-06T07:33:23;101333.00;;;12.00
15626;BMP180;7912;51.376;6.126;2023-04-06T07:35:51;101322.00;;;12.10
15626;BMP180;7912;51.376;6.126;2023-04-06T07:38:22;101329.00;;;12.30
15626;BMP180;7912;51.376;6.126;2023-04-06T07:40:49;101325.00;;;12.50
15626;BMP180;7912;51.376;6.126;2023-04-06T07:43:17;101320.00;;;12.70
15626;BMP180;7912;51.376;6.126;2023-04-06T07:45:47;101308.00;;;12.90
15626;BMP180;7912;51.376;6.126;2023-04-06T07:48:15;101314.00;;;13.20
15626;BMP180;7912;51.376;6.126;2023-04-06T07:50:43;101307.00;;;13.30
15626;BMP180;7912;51.376;6.126;2023-04-06T07:53:10;101309.00;;;13.50
15626;BMP180;7912;51.376;6.126;2023-04-06T07:55:38;101308.00;;;13.60
15626;BMP180;7912;51.376;6.126;2023-04-06T07:58:05;101310.00;;;13.70
15626;BMP180;7912;51.376;6.126;2023-04-06T08:00:36;101306.00;;;13.80
15626;BMP180;7912;51.376;6.126;2023-04-06T08:03:04;101305.00;;;13.90
15626;BMP180;7912;51.376;6.126;2023-04-06T08:05:32;101309.00;;;13.90
15626;BMP180;7912;51.376;6.126;2023-04-06T08:07:59;101306.00;;;13.90
15626;BMP180;7912;51.376;6.126;2023-04-06T08:10:27;101301.00;;;14.00
15626;BMP180;7912;51.376;6.126;2023-04-06T08:12:54;101306.00;;;14.10
15626;BMP180;7912;51.376;6.126;2023-04-06T08:15:22;101312.00;;;14.10
15626;BMP180;7912;51.376;6.126;2023-04-06T08:17:49;101294.00;;;14.30
15626;BMP180;7912;51.376;6.126;2023-04-06T08:20:17;101305.00;;;14.40
15626;BMP180;7912;51.376;6.126;2023-04-06T08:22:44;101306.00;;;14.60
15626;BMP180;7912;51.376;6.126;2023-04-06T08:25:12;101293.00;;;14.70
15626;BMP180;7912;51.376;6.126;2023-04-06T08:27:40;101306.00;;;14.80
15626;BMP180;7912;51.376;6.126;2023-04-06T08:38:28;101307.00;;;15.10
15626;BMP180;7912;51.376;6.126;2023-04-06T08:40:55;101314.00;;;15.20
15626;BMP180;7912;51.376;6.126;2023-04-06T08:43:23;101312.00;;;15.30
15626;BMP180;7912;51.376;6.126;2023-04-06T08:45:54;101308.00;;;15.40
15626;BMP180;7912;51.376;6.126;2023-04-06T08:48:21;101304.00;;;15.60
15626;BMP180;7912;51.376;6.126;2023-04-06T08:50:49;101305.00;;;15.80
15626;BMP180;7912;51.376;6.126;2023-04-06T08:53:17;101306.00;;;16.00
15626;BMP180;7912;51.376;6.126;2023-04-06T08:55:44;101294.00;;;16.20
15626;BMP180;7912;51.376;6.126;2023-04-06T08:58:13;101299.00;;;16.40
15626;BMP180;7912;51.376;6.126;2023-04-06T09:00:57;101297.00;;;16.60
15626;BMP180;7912;51.376;6.126;2023-04-06T09:03:28;101299.00;;;16.80
15626;BMP180;7912;51.376;6.126;2023-04-06T09:05:56;101290.00;;;17.00
15626;BMP180;7912;51.376;6.126;2023-04-06T09:08:23;101289.00;;;17.20
15626;BMP180;7912;51.376;6.126;2023-04-06T09:10:51;101295.00;;;17.40
15626;BMP180;7912;51.376;6.126;2023-04-06T09:13:19;101291.00;;;17.40
15626;BMP180;7912;51.376;6.126;2023-04-06T09:15:46;101302.00;;;17.50
15626;BMP180;7912;51.376;6.126;2023-04-06T09:18:28;101294.00;;;17.60
15626;BMP180;7912;51.376;6.126;2023-04-06T09:21:06;101303.00;;;17.60
15626;BMP180;7912;51.376;6.126;2023-04-06T09:23:38;101290.00;;;17.60
15626;BMP180;7912;51.376;6.126;2023-04-06T09:26:14;101305.00;;;17.70
15626;BMP180;7912;51.376;6.126;2023-04-06T09:28:54;101305.00;;;17.90
15626;BMP180;7912;51.376;6.126;2023-04-06T09:31:30;101293.00;;;18.10
15626;BMP180;7912;51.376;6.126;2023-04-06T09:34:00;101303.00;;;18.20
15626;BMP180;7912;51.376;6.126;2023-04-06T09:36:34;101306.00;;;18.20
15626;BMP180;7912;51.376;6.126;2023-04-06T09:39:04;101303.00;;;18.30
15626;BMP180;7912;51.376;6.126;2023-04-06T09:41:36;101308.00;;;18.30
15626;BMP180;7912;51.376;6.126;2023-04-06T09:46:42;101307.00;;;18.40
15626;BMP180;7912;51.376;6.126;2023-04-06T09:49:28;101306.00;;;18.50
15626;BMP180;7912;51.376;6.126;2023-04-06T09:52:06;101305.00;;;18.60
15626;BMP180;7912;51.376;6.126;2023-04-06T09:54:36;101307.00;;;18.60
15626;BMP180;7912;51.376;6.126;2023-04-06T09:57:32;101302.00;;;18.60
15626;BMP180;7912;51.376;6.126;2023-04-06T10:00:05;101306.00;;;18.60
15626;BMP180;7912;51.376;6.126;2023-04-06T10:02:55;101301.00;;;18.70
15626;BMP180;7912;51.376;6.126;2023-04-06T10:08:11;101306.00;;;19.00
15626;BMP180;7912;51.376;6.126;2023-04-06T10:10:39;101298.00;;;19.20
15626;BMP180;7912;51.376;6.126;2023-04-06T10:13:07;101290.00;;;19.30
15626;BMP180;7912;51.376;6.126;2023-04-06T10:15:38;101311.00;;;19.40
15626;BMP180;7912;51.376;6.126;2023-04-06T10:18:12;101297.00;;;19.50
15626;BMP180;7912;51.376;6.126;2023-04-06T10:20:50;101311.00;;;19.60
15626;BMP180;7912;51.376;6.126;2023-04-06T10:23:43;101311.00;;;19.70
15626;BMP180;7912;51.376;6.126;2023-04-06T10:26:19;101308.00;;;19.70
15626;BMP180;7912;51.376;6.126;2023-04-06T10:32:38;101299.00;;;19.50
15626;BMP180;7912;51.376;6.126;2023-04-06T10:35:12;101307.00;;;19.50
15626;BMP180;7912;51.376;6.126;2023-04-06T10:37:52;101309.00;;;19.40
15626;BMP180;7912;51.376;6.126;2023-04-06T10:40:26;101312.00;;;19.30
15626;BMP180;7912;51.376;6.126;2023-04-06T10:43:06;101309.00;;;19.20
15626;BMP180;7912;51.376;6.126;2023-04-06T10:45:34;101312.00;;;19.20
15626;BMP180;7912;51.376;6.126;2023-04-06T10:48:16;101304.00;;;19.30
15626;BMP180;7912;51.376;6.126;2023-04-06T10:50:48;101314.00;;;19.40
15626;BMP180;7912;51.376;6.126;2023-04-06T10:53:29;101312.00;;;19.50
15626;BMP180;7912;51.376;6.126;2023-04-06T10:56:29;101303.00;;;19.60
15626;BMP180;7912;51.376;6.126;2023-04-06T10:59:44;101304.00;;;19.70
15626;BMP180;7912;51.376;6.126;2023-04-06T11:02:20;101287.00;;;19.70
15626;BMP180;7912;51.376;6.126;2023-04-06T11:04:57;101294.00;;;19.70
15626;BMP180;7912;51.376;6.126;2023-04-06T11:07:44;101300.00;;;19.70
15626;BMP180;7912;51.376;6.126;2023-04-06T11:10:11;101296.00;;;19.70
15626;BMP180;7912;51.376;6.126;2023-04-06T11:12:44;101290.00;;;19.70
15626;BMP180;7912;51.376;6.126;2023-04-06T11:15:34;101305.00;;;19.60
15626;BMP180;7912;51.376;6.126;2023-04-06T11:22:06;101311.00;;;19.40
15626;BMP180;7912;51.376;6.126;2023-04-06T11:24:36;101301.00;;;19.40
15626;BMP180;7912;51.376;6.126;2023-04-06T11:31:03;101295.00;;;19.50
15626;BMP180;7912;51.376;6.126;2023-04-06T11:33:39;101296.00;;;19.50
15626;BMP180;7912;51.376;6.126;2023-04-06T11:36:07;101292.00;;;19.50
15626;BMP180;7912;51.376;6.126;2023-04-06T11:38:39;101302.00;;;19.50
15626;BMP180;7912;51.376;6.126;2023-04-06T11:45:17;101298.00;;;19.30
15626;BMP180;7912;51.376;6.126;2023-04-06T11:47:56;101306.00;;;19.10
15626;BMP180;7912;51.376;6.126;2023-04-06T11:50:25;101304.00;;;19.00
15626;BMP180;7912;51.376;6.126;2023-04-06T11:53:00;101303.00;;;18.80
15626;BMP180;7912;51.376;6.126;2023-04-06T11:55:28;101306.00;;;18.60
15626;BMP180;7912;51.376;6.126;2023-04-06T11:57:59;101298.00;;;18.40
15626;BMP180;7912;51.376;6.126;2023-04-06T12:00:27;101299.00;;;18.30
15626;BMP180;7912;51.376;6.126;2023-04-06T12:07:14;101297.00;;;17.80
15626;BMP180;7912;51.376;6.126;2023-04-06T12:09:42;101301.00;;;17.70
15626;BMP180;7912;51.376;6.126;2023-04-06T12:12:10;101295.00;;;17.60
15626;BMP180;7912;51.376;6.126;2023-04-06T12:14:37;101308.00;;;17.50
15626;BMP180;7912;51.376;6.126;2023-04-06T12:17:05;101306.00;;;17.40
15626;BMP180;7912;51.376;6.126;2023-04-06T12:19:32;101304.00;;;17.20
15626;BMP180;7912;51.376;6.126;2023-04-06T12:21:59;101306.00;;;17.00
15626;BMP180;7912;51.376;6.126;2023-04-06T12:28:12;101312.00;;;16.30
15626;BMP180;7912;51.376;6.126;2023-04-06T12:30:41;101320.00;;;16.10
15626;BMP180;7912;51.376;6.126;2023-04-06T12:33:08;101310.00;;;15.90
15626;BMP180;7912;51.376;6.126;2023-04-06T12:35:37;101313.00;;;15.70
15626;BMP180;7912;51.376;6.126;2023-04-06T12:38:05;101309.00;;;15.40
15626;BMP180;7912;51.376;6.126;2023-04-06T12:40:37;101317.00;;;15.20
15626;BMP180;7912;51.376;6.126;2023-04-06T12:43:05;101321.00;;;15.00
15626;BMP180;7912;51.376;6.126;2023-04-06T12:45:33;101316.00;;;14.80
15626;BMP180;7912;51.376;6.126;2023-04-06T12:48:00;101314.00;;;14.70
15626;BMP180;7912;51.376;6.126;2023-04-06T12:50:29;101308.00;;;14.60
15626;BMP180;7912;51.376;6.126;2023-04-06T12:52:57;101292.00;;;14.50
15626;BMP180;7912;51.376;6.126;2023-04-06T12:55:24;101295.00;;;14.40
15626;BMP180;7912;51.376;6.126;2023-04-06T12:58:24;101306.00;;;14.40
15626;BMP180;7912;51.376;6.126;2023-04-06T13:01:09;101294.00;;;14.30
15626;BMP180;7912;51.376;6.126;2023-04-06T13:03:40;101285.00;;;14.30
15626;BMP180;7912;51.376;6.126;2023-04-06T13:06:10;101295.00;;;14.30
15626;BMP180;7912;51.376;6.126;2023-04-06T13:08:39;101290.00;;;14.30
15626;BMP180;7912;51.376;6.126;2023-04-06T13:11:07;101289.00;;;14.30
15626;BMP180;7912;51.376;6.126;2023-04-06T13:13:37;101288.00;;;14.30
15626;BMP180;7912;51.376;6.126;2023-04-06T13:16:08;101283.00;;;14.30
15626;BMP180;7912;51.376;6.126;2023-04-06T13:18:36;101285.00;;;14.30
15626;BMP180;7912;51.376;6.126;2023-04-06T13:21:07;101283.00;;;14.30
15626;BMP180;7912;51.376;6.126;2023-04-06T13:23:35;101276.00;;;14.30
15626;BMP180;7912;51.376;6.126;2023-04-06T13:26:07;101281.00;;;14.30
15626;BMP180;7912;51.376;6.126;2023-04-06T13:28:36;101278.00;;;14.30
15626;BMP180;7912;51.376;6.126;2023-04-06T13:31:07;101275.00;;;14.30
15626;BMP180;7912;51.376;6.126;2023-04-06T13:33:36;101270.00;;;14.30
15626;BMP180;7912;51.376;6.126;2023-04-06T13:36:04;101267.00;;;14.30
15626;BMP180;7912;51.376;6.126;2023-04-06T13:38:33;101262.00;;;14.20
15626;BMP180;7912;51.376;6.126;2023-04-06T13:41:00;101275.00;;;14.20
15626;BMP180;7912;51.376;6.126;2023-04-06T13:43:28;101274.00;;;14.10
15626;BMP180;7912;51.376;6.126;2023-04-06T13:45:57;101266.00;;;14.10
15626;BMP180;7912;51.376;6.126;2023-04-06T13:48:27;101269.00;;;14.00
15626;BMP180;7912;51.376;6.126;2023-04-06T13:50:54;101262.00;;;14.00
15626;BMP180;7912;51.376;6.126;2023-04-06T13:57:45;101261.00;;;13.90
15626;BMP180;7912;51.376;6.126;2023-04-06T14:00:13;101258.00;;;13.90
15626;BMP180;7912;51.376;6.126;2023-04-06T14:02:41;101264.00;;;13.90
15626;BMP180;7912;51.376;6.126;2023-04-06T14:25:24;101241.00;;;13.70
15626;BMP180;7912;51.376;6.126;2023-04-06T14:27:51;101230.00;;;13.70
15626;BMP180;7912;51.376;6.126;2023-04-06T14:30:18;101227.00;;;13.70
15626;BMP180;7912;51.376;6.126;2023-04-06T14:32:46;101234.00;;;13.70
15626;BMP180;7912;51.376;6.126;2023-04-06T14:35:14;101217.00;;;13.70
15626;BMP180;7912;51.376;6.126;2023-04-06T14:37:44;101207.00;;;13.80
15626;BMP180;7912;51.376;6.126;2023-04-06T14:40:12;101208.00;;;13.80
15626;BMP180;7912;51.376;6.126;2023-04-06T14:42:39;101204.00;;;13.80
15626;BMP180;7912;51.376;6.126;2023-04-06T14:57:26;101201.00;;;13.60
15626;BMP180;7912;51.376;6.126;2023-04-06T14:59:53;101189.00;;;13.60
15626;BMP180;7912;51.376;6.126;2023-04-06T15:06:31;101181.00;;;13.50
15626;BMP180;7912;51.376;6.126;2023-04-06T15:09:17;101173.00;;;13.40
15626;BMP180;7912;51.376;6.126;2023-04-06T15:15:56;101185.00;;;13.20
15626;BMP180;7912;51.376;6.126;2023-04-06T15:18:25;101189.00;;;13.20
15626;BMP180;7912;51.376;6.126;2023-04-06T15:20:54;101179.00;;;13.20
15626;BMP180;7912;51.376;6.126;2023-04-06T15:27:04;101173.00;;;13.20
15626;BMP180;7912;51.376;6.126;2023-04-06T15:29:31;101164.00;;;13.20
15626;BMP180;7912;51.376;6.126;2023-04-06T15:52:49;101170.00;;;12.90
15626;BMP180;7912;51.376;6.126;2023-04-06T15:55:18;101154.00;;;12.90
15626;BMP180;7912;51.376;6.126;2023-04-06T15:57:46;101165.00;;;12.90
15626;BMP180;7912;51.376;6.126;2023-04-06T16:13:14;101164.00;;;12.70
15626;BMP180;7912;51.376;6.126;2023-04-06T16:15:42;101153.00;;;12.70
15626;BMP180;7912;51.376;6.126;2023-04-06T16:18:09;101160.00;;;12.70
15626;BMP180;7912;51.376;6.126;2023-04-06T16:20:40;101166.00;;;12.70
15626;BMP180;7912;51.376;6.126;2023-04-06T16:23:11;101153.00;;;12.70
15626;BMP180;7912;51.376;6.126;2023-04-06T16:25:43;101157.00;;;12.60
15626;BMP180;7912;51.376;6.126;2023-04-06T16:28:23;101151.00;;;12.60
15626;BMP180;7912;51.376;6.126;2023-04-06T16:31:06;101137.00;;;12.60
15626;BMP180;7912;51.376;6.126;2023-04-06T16:33:44;101140.00;;;12.50
15626;BMP180;7912;51.376;6.126;2023-04-06T16:36:25;101137.00;;;12.50
15626;BMP180;7912;51.376;6.126;2023-04-06T16:38:59;101136.00;;;12.50
15626;BMP180;7912;51.376;6.126;2023-04-06T16:41:33;101136.00;;;12.50